createdAt,value
2022-10-20T00:00:24.237Z,7.7
2022-10-20T00:01:24.831Z,7.7
2022-10-20T00:02:25.480Z,7.5
2022-10-20T00:03:26.037Z,7.7
2022-10-20T00:04:26.647Z,7.4
2022-10-20T00:05:27.240Z,7.4
2022-10-20T00:06:27.838Z,8.4
2022-10-20T00:07:28.429Z,8.0
2022-10-20T00:08:29.034Z,8.1
2022-10-20T00:09:29.617Z,8.7
2022-10-20T00:10:30.208Z,7.8
2022-10-20T00:11:30.801Z,7.5
2022-10-20T00:12:31.394Z,7.6
2022-10-20T00:13:31.988Z,8.3
2022-10-20T00:14:32.580Z,7.9
2022-10-20T00:15:33.173Z,7.6
2022-10-20T00:16:33.774Z,8.8
2022-10-20T00:17:34.360Z,8.6
2022-10-20T00:18:34.953Z,8.9
2022-10-20T00:19:35.549Z,8.7
2022-10-20T00:20:36.140Z,8.9
2022-10-20T00:21:36.736Z,8.3
2022-10-20T00:22:37.721Z,8.5
2022-10-20T00:23:38.360Z,8.8
2022-10-20T00:24:38.952Z,8.7
2022-10-20T00:25:39.547Z,9.0
2022-10-20T00:26:40.138Z,8.5
2022-10-20T00:27:40.732Z,8.2
2022-10-20T00:28:41.343Z,8.7
2022-10-20T00:29:41.937Z,8.8
2022-10-20T00:30:42.529Z,8.0
2022-10-20T00:31:43.123Z,8.7
2022-10-20T00:32:43.714Z,8.2
2022-10-20T00:33:44.309Z,8.4
2022-10-20T00:34:44.903Z,9.2
2022-10-20T00:35:45.505Z,9.5
2022-10-20T00:36:50.321Z,8.4
2022-10-20T00:37:47.674Z,8.9
2022-10-20T00:38:48.264Z,8.9
2022-10-20T00:39:48.878Z,9.0
2022-10-20T00:40:49.489Z,8.5
2022-10-20T00:41:50.083Z,9.3
2022-10-20T00:42:50.676Z,9.2
2022-10-20T00:43:51.269Z,8.7
2022-10-20T00:44:51.862Z,8.5
2022-10-20T00:45:52.454Z,8.3
2022-10-20T00:46:53.047Z,9.7
2022-10-20T00:47:53.640Z,8.9
2022-10-20T00:48:54.234Z,9.5
2022-10-20T00:49:54.826Z,9.1
2022-10-20T00:50:55.431Z,9.5
2022-10-20T00:51:56.009Z,9.2
2022-10-20T00:52:56.604Z,8.9
2022-10-20T00:53:57.198Z,10.1
2022-10-20T00:54:57.792Z,10.4
2022-10-20T00:55:58.384Z,10.0
2022-10-20T00:56:59.033Z,9.7
2022-10-20T00:57:59.572Z,10.1
2022-10-20T00:59:00.167Z,9.8
2022-10-20T01:00:00.763Z,9.4
2022-10-20T01:01:01.353Z,9.8
2022-10-20T01:02:02.020Z,9.8
2022-10-20T01:03:02.584Z,10.3
2022-10-20T01:04:03.199Z,10.0
2022-10-20T01:05:03.791Z,10.5
2022-10-20T01:06:04.408Z,9.7
2022-10-20T01:07:04.977Z,10.9
2022-10-20T01:08:05.732Z,9.7
2022-10-20T01:09:06.375Z,10.3
2022-10-20T01:10:06.952Z,10.3
2022-10-20T01:11:07.547Z,10.1
2022-10-20T01:12:08.139Z,10.8
2022-10-20T01:13:08.737Z,10.5
2022-10-20T01:14:09.330Z,11.0
2022-10-20T01:15:10.017Z,11.7
2022-10-20T01:16:10.612Z,10.8
2022-10-20T01:17:11.206Z,10.4
2022-10-20T01:18:11.800Z,10.8
2022-10-20T01:19:12.412Z,14.3
2022-10-20T01:20:13.008Z,12.0
2022-10-20T01:21:13.604Z,10.6
2022-10-20T01:22:14.198Z,10.9
2022-10-20T01:23:14.793Z,10.7
2022-10-20T01:24:15.425Z,10.4
2022-10-20T01:25:15.986Z,10.5
2022-10-20T01:26:16.579Z,10.8
2022-10-20T01:27:17.173Z,10.5
2022-10-20T01:28:17.767Z,10.3
2022-10-20T01:29:18.382Z,10.5
2022-10-20T01:30:18.975Z,10.2
2022-10-20T01:31:19.575Z,10.5
2022-10-20T01:32:20.170Z,10.7
2022-10-20T01:33:20.816Z,9.9
2022-10-20T01:34:21.373Z,10.2
2022-10-20T01:35:21.966Z,9.4
2022-10-20T01:36:22.560Z,10.1
2022-10-20T01:37:34.109Z,10.7
2022-10-20T01:38:24.743Z,10.1
2022-10-20T01:39:25.339Z,10.4
2022-10-20T01:40:25.933Z,9.6
2022-10-20T01:41:26.529Z,10.3
2022-10-20T01:42:27.184Z,10.4
2022-10-20T01:43:27.735Z,10.1
2022-10-20T01:44:28.328Z,10.7
2022-10-20T01:45:28.925Z,10.7
2022-10-20T01:46:29.519Z,11.3
2022-10-20T01:47:30.116Z,11.1
2022-10-20T01:48:30.712Z,10.8
2022-10-20T01:49:31.308Z,11.0
2022-10-20T01:50:31.904Z,10.4
2022-10-20T01:51:32.589Z,11.1
2022-10-20T01:52:33.393Z,11.8
2022-10-20T01:53:34.126Z,10.0
2022-10-20T01:54:34.722Z,10.1
2022-10-20T01:55:35.315Z,10.7
2022-10-20T01:56:35.909Z,10.9
2022-10-20T01:57:36.503Z,11.7
2022-10-20T01:58:37.099Z,10.5
2022-10-20T01:59:37.695Z,10.2
2022-10-20T02:00:38.291Z,10.5
2022-10-20T02:01:38.934Z,10.9
2022-10-20T02:02:39.595Z,10.7
2022-10-20T02:03:40.109Z,9.5
2022-10-20T02:04:40.703Z,10.9
2022-10-20T02:05:41.301Z,10.9
2022-10-20T02:06:41.895Z,10.9
2022-10-20T02:07:42.491Z,10.0
2022-10-20T02:08:43.620Z,10.5
2022-10-20T02:09:44.250Z,10.6
2022-10-20T02:10:44.809Z,10.4
2022-10-20T02:11:45.404Z,10.9
2022-10-20T02:12:45.998Z,10.0
2022-10-20T02:13:46.595Z,10.1
2022-10-20T02:14:47.189Z,10.7
2022-10-20T02:15:47.804Z,10.0
2022-10-20T02:16:48.401Z,10.1
2022-10-20T02:17:48.992Z,10.5
2022-10-20T02:18:49.627Z,10.0
2022-10-20T02:19:50.204Z,10.1
2022-10-20T02:20:50.803Z,10.6
2022-10-20T02:21:51.393Z,9.8
2022-10-20T02:22:51.986Z,10.3
2022-10-20T02:23:52.610Z,10.2
2022-10-20T02:24:53.213Z,10.9
2022-10-20T02:25:53.796Z,11.3
2022-10-20T02:26:54.390Z,11.5
2022-10-20T02:27:55.009Z,11.2
2022-10-20T02:28:55.580Z,11.6
2022-10-20T02:29:56.175Z,12.2
2022-10-20T02:30:56.768Z,11.4
2022-10-20T02:31:57.363Z,11.6
2022-10-20T02:32:57.956Z,12.1
2022-10-20T02:33:58.555Z,10.5
2022-10-20T02:35:03.497Z,12.2
2022-10-20T02:36:00.739Z,11.6
2022-10-20T02:37:01.344Z,11.5
2022-10-20T02:38:01.942Z,11.4
2022-10-20T02:39:02.566Z,11.2
2022-10-20T02:40:03.147Z,10.8
2022-10-20T02:41:03.739Z,11.4
2022-10-20T02:42:04.333Z,11.4
2022-10-20T02:43:04.927Z,11.4
2022-10-20T02:44:05.522Z,11.3
2022-10-20T02:45:06.116Z,11.7
2022-10-20T02:46:06.789Z,11.3
2022-10-20T02:47:07.359Z,11.6
2022-10-20T02:48:08.029Z,11.8
2022-10-20T02:49:08.565Z,11.3
2022-10-20T02:50:09.160Z,12.4
2022-10-20T02:51:09.752Z,11.6
2022-10-20T02:52:10.349Z,12.1
2022-10-20T02:53:10.945Z,11.4
2022-10-20T02:54:11.543Z,12.1
2022-10-20T02:55:12.177Z,12.5
2022-10-20T02:56:12.729Z,12.6
2022-10-20T02:57:13.344Z,12.5
2022-10-20T02:58:13.938Z,13.4
2022-10-20T02:59:14.545Z,13.1
2022-10-20T03:00:15.129Z,12.2
2022-10-20T03:01:15.758Z,12.5
2022-10-20T03:02:16.332Z,12.2
2022-10-20T03:03:16.927Z,13.0
2022-10-20T03:04:17.570Z,12.6
2022-10-20T03:05:18.133Z,12.2
2022-10-20T03:06:18.728Z,11.7
2022-10-20T03:07:19.324Z,12.6
2022-10-20T03:08:19.917Z,12.8
2022-10-20T03:09:20.513Z,13.0
2022-10-20T03:10:21.131Z,12.9
2022-10-20T03:11:21.723Z,13.0
2022-10-20T03:12:22.317Z,17.9
2022-10-20T03:13:22.933Z,13.4
2022-10-20T03:14:23.505Z,13.6
2022-10-20T03:15:24.100Z,14.0
2022-10-20T03:16:24.696Z,12.1
2022-10-20T03:17:25.292Z,12.4
2022-10-20T03:18:25.887Z,11.9
2022-10-20T03:19:26.482Z,12.5
2022-10-20T03:20:27.076Z,11.9
2022-10-20T03:21:27.668Z,11.8
2022-10-20T03:23:28.861Z,11.9
2022-10-20T03:24:29.457Z,11.6
2022-10-20T03:25:30.050Z,11.5
2022-10-20T03:26:30.644Z,12.5
2022-10-20T03:27:31.237Z,11.8
2022-10-20T03:28:31.830Z,11.3
2022-10-20T03:29:32.426Z,11.1
2022-10-20T03:30:33.020Z,11.8
2022-10-20T03:31:33.616Z,12.1
2022-10-20T03:32:34.449Z,11.6
2022-10-20T03:33:35.216Z,11.1
2022-10-20T03:34:35.813Z,11.3
2022-10-20T03:35:36.406Z,10.5
2022-10-20T03:36:36.999Z,11.2
2022-10-20T03:37:37.593Z,12.1
2022-10-20T03:38:38.190Z,11.4
2022-10-20T03:39:38.783Z,10.6
2022-10-20T03:40:39.379Z,11.7
2022-10-20T03:41:39.974Z,10.7
2022-10-20T03:42:40.570Z,11.1
2022-10-20T03:43:41.163Z,11.2
2022-10-20T03:44:41.758Z,11.0
2022-10-20T03:45:42.352Z,11.2
2022-10-20T03:46:42.947Z,11.6
2022-10-20T03:47:43.540Z,10.6
2022-10-20T03:48:44.135Z,10.5
2022-10-20T03:49:44.729Z,11.5
2022-10-20T03:50:45.325Z,11.0
2022-10-20T03:51:45.918Z,11.9
2022-10-20T03:52:46.512Z,11.3
2022-10-20T03:53:47.106Z,11.5
2022-10-20T03:54:47.701Z,11.4
2022-10-20T03:55:48.296Z,11.3
2022-10-20T03:56:48.890Z,10.9
2022-10-20T03:57:49.483Z,10.9
2022-10-20T03:58:50.160Z,11.6
2022-10-20T03:59:50.781Z,11.4
2022-10-20T04:00:51.397Z,10.8
2022-10-20T04:01:52.031Z,11.2
2022-10-20T04:02:52.607Z,11.8
2022-10-20T04:03:53.200Z,12.3
2022-10-20T04:04:53.794Z,11.2
2022-10-20T04:05:54.387Z,10.6
2022-10-20T04:06:54.983Z,11.2
2022-10-20T04:07:55.577Z,11.8
2022-10-20T04:08:56.231Z,11.0
2022-10-20T04:09:56.820Z,11.9
2022-10-20T04:10:57.415Z,11.4
2022-10-20T04:11:58.010Z,11.0
2022-10-20T04:12:58.607Z,12.4
2022-10-20T04:13:59.202Z,10.9
2022-10-20T04:14:59.814Z,11.2
2022-10-20T04:16:00.406Z,10.8
2022-10-20T04:17:01.004Z,11.4
2022-10-20T04:18:01.597Z,10.6
2022-10-20T04:19:02.194Z,11.8
2022-10-20T04:20:02.815Z,11.4
2022-10-20T04:21:03.403Z,11.1
2022-10-20T04:22:03.996Z,11.5
2022-10-20T04:23:04.593Z,11.1
2022-10-20T04:24:05.186Z,10.9
2022-10-20T04:25:05.783Z,11.4
2022-10-20T04:26:06.376Z,10.4
2022-10-20T04:27:06.975Z,11.4
2022-10-20T04:28:07.570Z,11.1
2022-10-20T04:29:08.182Z,11.9
2022-10-20T04:30:08.774Z,10.4
2022-10-20T04:31:09.370Z,10.8
2022-10-20T04:32:09.966Z,10.1
2022-10-20T04:33:10.563Z,10.5
2022-10-20T04:34:11.157Z,10.7
2022-10-20T04:35:11.758Z,10.6
2022-10-20T04:36:12.351Z,10.4
2022-10-20T04:37:12.942Z,10.1
2022-10-20T04:38:13.536Z,9.5
2022-10-20T04:39:14.127Z,9.9
2022-10-20T04:40:14.745Z,9.0
2022-10-20T04:41:15.336Z,9.4
2022-10-20T04:42:15.928Z,9.8
2022-10-20T04:43:16.521Z,9.0
2022-10-20T04:44:17.116Z,9.3
2022-10-20T04:45:17.710Z,9.9
2022-10-20T04:46:18.307Z,9.6
2022-10-20T04:47:18.896Z,9.2
2022-10-20T04:48:19.489Z,9.4
2022-10-20T04:49:20.084Z,11.2
2022-10-20T04:50:20.679Z,10.1
2022-10-20T04:51:21.276Z,9.3
2022-10-20T04:52:21.867Z,9.2
2022-10-20T04:53:22.461Z,8.9
2022-10-20T04:54:23.057Z,9.2
2022-10-20T04:55:23.645Z,8.7
2022-10-20T04:56:24.237Z,9.0
2022-10-20T04:57:24.830Z,9.0
2022-10-20T04:58:25.422Z,9.0
2022-10-20T04:59:26.016Z,9.3
2022-10-20T05:00:26.619Z,9.4
2022-10-20T05:01:27.255Z,9.1
2022-10-20T05:02:27.813Z,8.7
2022-10-20T05:03:28.410Z,9.4
2022-10-20T05:04:29.007Z,8.9
2022-10-20T05:05:29.647Z,10.4
2022-10-20T05:06:30.211Z,11.6
2022-10-20T05:07:30.803Z,8.5
2022-10-20T05:08:31.413Z,8.8
2022-10-20T05:09:31.986Z,9.0
2022-10-20T05:10:35.831Z,8.5
2022-10-20T05:11:34.164Z,9.1
2022-10-20T05:12:35.144Z,8.1
2022-10-20T05:13:35.822Z,8.3
2022-10-20T05:14:36.416Z,9.4
2022-10-20T05:15:37.005Z,8.8
2022-10-20T05:16:37.600Z,9.0
2022-10-20T05:17:38.195Z,7.9
2022-10-20T05:18:38.789Z,8.3
2022-10-20T05:19:39.377Z,9.1
2022-10-20T05:20:41.216Z,7.9
2022-10-20T05:22:42.155Z,8.6
2022-10-20T05:23:42.749Z,7.2
2022-10-20T05:24:43.340Z,8.4
2022-10-20T05:25:43.932Z,7.9
2022-10-20T05:26:44.526Z,7.7
2022-10-20T05:27:45.118Z,8.2
2022-10-20T05:28:45.714Z,7.4
2022-10-20T05:29:46.352Z,7.8
2022-10-20T05:30:46.906Z,7.0
2022-10-20T05:31:47.494Z,8.5
2022-10-20T05:32:48.088Z,7.4
2022-10-20T05:33:48.682Z,7.5
2022-10-20T05:34:49.275Z,7.8
2022-10-20T05:35:49.870Z,7.7
2022-10-20T05:36:50.464Z,7.8
2022-10-20T05:37:51.058Z,7.2
2022-10-20T05:38:51.651Z,6.9
2022-10-20T05:39:52.245Z,6.8
2022-10-20T05:40:52.859Z,6.6
2022-10-20T05:41:53.449Z,7.8
2022-10-20T05:42:54.044Z,7.1
2022-10-20T05:43:54.637Z,7.3
2022-10-20T05:44:55.235Z,6.8
2022-10-20T05:45:55.829Z,5.9
2022-10-20T05:46:56.425Z,6.8
2022-10-20T05:47:57.019Z,6.3
2022-10-20T05:48:57.615Z,6.2
2022-10-20T05:49:58.210Z,6.8
2022-10-20T05:50:58.805Z,6.3
2022-10-20T05:51:59.400Z,6.4
2022-10-20T05:52:59.996Z,6.3
2022-10-20T05:54:00.601Z,6.2
2022-10-20T05:55:01.190Z,5.7
2022-10-20T05:56:01.787Z,6.1
2022-10-20T05:57:02.384Z,6.1
2022-10-20T05:58:02.979Z,5.9
2022-10-20T05:59:03.576Z,6.8
2022-10-20T06:00:04.172Z,6.3
2022-10-20T06:01:04.786Z,6.6
2022-10-20T06:02:05.380Z,6.2
2022-10-20T06:03:06.083Z,6.2
2022-10-20T06:04:06.675Z,6.0
2022-10-20T06:05:07.273Z,5.9
2022-10-20T06:06:07.868Z,6.2
2022-10-20T06:07:08.466Z,6.4
2022-10-20T06:08:09.061Z,5.9
2022-10-20T06:09:09.658Z,6.6
2022-10-20T06:10:10.254Z,6.2
2022-10-20T06:11:10.853Z,6.1
2022-10-20T06:12:11.452Z,6.2
2022-10-20T06:13:12.050Z,6.0
2022-10-20T06:14:12.647Z,6.0
2022-10-20T06:15:13.248Z,6.8
2022-10-20T06:16:13.844Z,5.9
2022-10-20T06:17:14.441Z,6.0
2022-10-20T06:18:15.036Z,6.2
2022-10-20T06:19:15.634Z,6.8
2022-10-20T06:20:16.232Z,6.7
2022-10-20T06:21:16.829Z,5.7
2022-10-20T06:22:17.426Z,6.0
2022-10-20T06:23:18.024Z,5.6
2022-10-20T06:24:18.622Z,5.5
2022-10-20T06:25:19.222Z,5.8
2022-10-20T06:26:19.824Z,5.5
2022-10-20T06:27:20.419Z,5.7
2022-10-20T06:28:21.017Z,5.7
2022-10-20T06:29:21.617Z,6.4
2022-10-20T06:30:22.213Z,5.4
2022-10-20T06:31:22.832Z,5.9
2022-10-20T06:32:23.411Z,6.2
2022-10-20T06:33:24.006Z,6.1
2022-10-20T06:34:24.658Z,5.8
2022-10-20T06:35:25.250Z,5.9
2022-10-20T06:36:25.847Z,6.2
2022-10-20T06:37:26.444Z,6.6
2022-10-20T06:38:27.041Z,5.1
2022-10-20T06:39:27.639Z,6.0
2022-10-20T06:40:28.235Z,5.8
2022-10-20T06:41:28.834Z,6.2
2022-10-20T06:42:29.430Z,5.9
2022-10-20T06:43:30.031Z,5.2
2022-10-20T06:44:30.648Z,5.8
2022-10-20T06:45:31.245Z,5.8
2022-10-20T06:46:31.842Z,5.9
2022-10-20T06:47:32.441Z,5.2
2022-10-20T06:48:33.064Z,5.5
2022-10-20T06:49:33.657Z,5.2
2022-10-20T06:50:34.251Z,5.2
2022-10-20T06:51:34.859Z,4.8
2022-10-20T06:52:35.618Z,5.7
2022-10-20T06:53:36.320Z,5.1
2022-10-20T06:54:36.917Z,5.1
2022-10-20T06:55:37.516Z,5.2
2022-10-20T06:56:38.113Z,4.4
2022-10-20T06:57:38.731Z,4.7
2022-10-20T06:58:39.328Z,5.6
2022-10-20T06:59:39.935Z,4.8
2022-10-20T07:00:40.523Z,4.6
2022-10-20T07:01:41.209Z,5.2
2022-10-20T07:02:41.774Z,4.5
2022-10-20T07:03:42.377Z,5.1
2022-10-20T07:04:42.969Z,4.9
2022-10-20T07:05:43.567Z,4.9
2022-10-20T07:06:44.162Z,4.8
2022-10-20T07:07:44.760Z,4.7
2022-10-20T07:08:45.473Z,5.4
2022-10-20T07:09:46.086Z,5.2
2022-10-20T07:10:46.681Z,4.8
2022-10-20T07:11:47.279Z,5.0
2022-10-20T07:12:47.875Z,5.3
2022-10-20T07:13:48.473Z,5.1
2022-10-20T07:14:49.131Z,4.9
2022-10-20T07:15:49.693Z,5.5
2022-10-20T07:16:50.289Z,5.1
2022-10-20T07:17:50.887Z,4.6
2022-10-20T07:18:51.508Z,5.3
2022-10-20T07:19:52.280Z,4.9
2022-10-20T07:20:52.878Z,5.3
2022-10-20T07:21:53.532Z,4.6
2022-10-20T07:22:54.095Z,4.7
2022-10-20T07:23:54.696Z,4.9
2022-10-20T07:24:55.317Z,5.5
2022-10-20T07:25:55.915Z,5.1
2022-10-20T07:26:56.515Z,5.2
2022-10-20T07:27:57.112Z,4.7
2022-10-20T07:28:57.715Z,4.9
2022-10-20T07:29:58.311Z,5.3
2022-10-20T07:30:58.908Z,5.5
2022-10-20T07:32:01.434Z,4.6
2022-10-20T07:33:01.099Z,5.1
2022-10-20T07:34:12.880Z,5.3
2022-10-20T07:35:03.292Z,4.8
2022-10-20T07:36:03.894Z,5.3
2022-10-20T07:37:04.512Z,5.3
2022-10-20T07:38:05.114Z,5.4
2022-10-20T07:39:05.712Z,4.9
2022-10-20T07:40:06.515Z,5.2
2022-10-20T07:41:07.113Z,4.8
2022-10-20T07:42:07.714Z,5.2
2022-10-20T07:43:08.312Z,4.9
2022-10-20T07:44:08.913Z,4.8
2022-10-20T07:45:09.510Z,4.8
2022-10-20T07:46:10.112Z,5.2
2022-10-20T07:47:10.708Z,5.6
2022-10-20T07:48:11.308Z,4.7
2022-10-20T07:49:42.293Z,4.9
2022-10-20T07:50:13.497Z,5.6
2022-10-20T07:52:14.704Z,5.3
2022-10-20T07:53:15.299Z,5.7
2022-10-20T07:54:15.898Z,5.6
2022-10-20T07:55:33.402Z,5.6
2022-10-20T07:56:18.088Z,5.2
2022-10-20T07:57:18.688Z,5.7
2022-10-20T07:58:19.287Z,5.4
2022-10-20T07:59:19.884Z,5.8
2022-10-20T08:00:20.503Z,6.1
2022-10-20T08:01:21.135Z,5.4
2022-10-20T08:02:21.759Z,5.0
2022-10-20T08:03:22.320Z,5.4
2022-10-20T08:04:22.919Z,5.6
2022-10-20T08:05:23.517Z,5.5
2022-10-20T08:06:24.115Z,5.6
2022-10-20T08:07:24.712Z,5.7
2022-10-20T08:08:25.436Z,6.4
2022-10-20T08:09:26.006Z,5.5
2022-10-20T08:10:26.604Z,6.1
2022-10-20T08:11:27.212Z,6.3
2022-10-20T08:12:27.826Z,6.2
2022-10-20T08:13:28.439Z,5.9
2022-10-20T08:14:29.038Z,6.8
2022-10-20T08:15:29.639Z,5.7
2022-10-20T08:16:30.257Z,6.3
2022-10-20T08:17:30.867Z,5.9
2022-10-20T08:18:31.682Z,6.7
2022-10-20T08:19:39.547Z,6.2
2022-10-20T08:20:40.172Z,6.3
2022-10-20T08:21:40.767Z,6.2
2022-10-20T08:22:41.385Z,6.0
2022-10-20T08:23:41.981Z,6.1
2022-10-20T08:24:42.582Z,5.8
2022-10-20T08:25:43.180Z,6.9
2022-10-20T08:26:43.781Z,6.2
2022-10-20T08:27:44.380Z,5.5
2022-10-20T08:28:44.978Z,6.0
2022-10-20T08:29:50.963Z,6.5
2022-10-20T08:30:47.167Z,6.0
2022-10-20T08:31:47.777Z,5.9
2022-10-20T08:32:48.386Z,6.5
2022-10-20T08:33:52.609Z,6.5
2022-10-20T08:34:50.594Z,6.3
2022-10-20T08:35:51.214Z,6.2
2022-10-20T08:36:51.813Z,5.9
2022-10-20T08:37:52.433Z,6.5
2022-10-20T08:38:53.034Z,5.9
2022-10-20T08:39:53.631Z,6.1
2022-10-20T08:40:54.233Z,6.1
2022-10-20T08:42:08.160Z,7.2
2022-10-20T08:42:56.332Z,6.1
2022-10-20T08:43:56.948Z,6.5
2022-10-20T08:44:57.567Z,6.3
2022-10-20T08:45:58.164Z,6.6
2022-10-20T08:46:58.762Z,6.6
2022-10-20T08:47:59.360Z,6.3
2022-10-20T08:48:59.967Z,6.3
2022-10-20T08:50:00.576Z,5.6
2022-10-20T08:51:01.174Z,6.0
2022-10-20T08:52:01.788Z,5.5
2022-10-20T08:53:02.371Z,6.3
2022-10-20T08:54:02.969Z,6.0
2022-10-20T08:55:03.568Z,6.0
2022-10-20T08:56:04.165Z,5.8
2022-10-20T08:57:04.766Z,5.9
2022-10-20T08:58:05.363Z,6.2
2022-10-20T08:59:05.961Z,5.9
2022-10-20T09:00:09.007Z,6.3
2022-10-20T09:01:08.157Z,6.5
2022-10-20T09:02:08.790Z,6.0
2022-10-20T09:03:09.371Z,5.7
2022-10-20T09:04:09.970Z,6.4
2022-10-20T09:05:12.894Z,5.7
2022-10-20T09:06:12.163Z,6.2
2022-10-20T09:07:12.764Z,5.6
2022-10-20T09:08:13.364Z,6.1
2022-10-20T09:09:14.039Z,5.7
2022-10-20T09:10:14.580Z,5.7
2022-10-20T09:11:15.181Z,5.9
2022-10-20T09:12:15.781Z,5.7
2022-10-20T09:13:16.383Z,5.0
2022-10-20T09:14:16.982Z,5.9
2022-10-20T09:15:17.590Z,6.0
2022-10-20T09:16:27.303Z,5.5
2022-10-20T09:17:19.780Z,6.0
2022-10-20T09:18:20.381Z,5.9
2022-10-20T09:19:20.981Z,5.7
2022-10-20T09:20:21.588Z,5.6
2022-10-20T09:21:22.184Z,5.2
2022-10-20T09:22:22.783Z,6.0
2022-10-20T09:23:39.989Z,6.0
2022-10-20T09:24:24.980Z,5.2
2022-10-20T09:25:25.580Z,6.1
2022-10-20T09:26:32.147Z,5.6
2022-10-20T09:27:27.777Z,5.6
2022-10-20T09:28:34.245Z,5.7
2022-10-20T09:29:28.991Z,5.7
2022-10-20T09:30:29.607Z,6.2
2022-10-20T09:31:30.193Z,5.9
2022-10-20T09:32:47.671Z,5.9
2022-10-20T09:33:32.385Z,5.5
2022-10-20T09:34:32.985Z,5.6
2022-10-20T09:35:33.586Z,5.7
2022-10-20T09:36:34.187Z,5.4
2022-10-20T09:37:34.787Z,5.8
2022-10-20T09:38:35.387Z,4.8
2022-10-20T09:39:39.198Z,5.6
2022-10-20T09:40:37.602Z,5.0
2022-10-20T09:41:38.200Z,6.1
2022-10-20T09:42:39.133Z,5.7
2022-10-20T09:43:39.887Z,6.0
2022-10-20T09:44:40.486Z,5.7
2022-10-20T09:45:41.105Z,5.6
2022-10-20T09:46:41.706Z,4.9
2022-10-20T09:47:42.307Z,5.6
2022-10-20T09:48:42.908Z,5.6
2022-10-20T09:49:43.508Z,5.6
2022-10-20T09:50:44.111Z,5.5
2022-10-20T09:51:44.726Z,5.2
2022-10-20T09:52:45.311Z,5.4
2022-10-20T09:53:45.920Z,5.5
2022-10-20T09:54:46.535Z,5.3
2022-10-20T09:55:47.131Z,5.5
2022-10-20T09:56:47.753Z,5.2
2022-10-20T09:57:48.382Z,5.7
2022-10-20T09:58:48.953Z,5.5
2022-10-20T09:59:49.573Z,5.5
2022-10-20T10:00:50.207Z,5.1
2022-10-20T10:01:50.782Z,5.3
2022-10-20T10:02:51.383Z,5.2
2022-10-20T10:03:51.985Z,4.9
2022-10-20T10:04:52.586Z,5.5
2022-10-20T10:05:53.184Z,4.6
2022-10-20T10:06:53.787Z,4.8
2022-10-20T10:07:54.406Z,5.1
2022-10-20T10:08:55.043Z,4.9
2022-10-20T10:09:55.620Z,5.2
2022-10-20T10:10:56.229Z,5.1
2022-10-20T10:11:56.845Z,4.5
2022-10-20T10:12:57.494Z,5.1
2022-10-20T10:13:58.082Z,4.8
2022-10-20T10:14:58.700Z,4.4
2022-10-20T10:15:59.300Z,4.8
2022-10-20T10:16:59.906Z,4.8
2022-10-20T10:18:00.526Z,4.2
2022-10-20T10:19:01.172Z,4.8
2022-10-20T10:20:01.746Z,4.5
2022-10-20T10:21:02.366Z,5.2
2022-10-20T10:22:02.964Z,4.1
2022-10-20T10:23:03.571Z,5.0
2022-10-20T10:24:04.172Z,4.4
2022-10-20T10:25:04.773Z,4.5
2022-10-20T10:26:05.372Z,4.9
2022-10-20T10:27:05.975Z,5.1
2022-10-20T10:28:06.574Z,4.7
2022-10-20T10:29:07.176Z,4.4
2022-10-20T10:30:07.776Z,4.5
2022-10-20T10:31:08.375Z,4.4
2022-10-20T10:32:08.976Z,4.8
2022-10-20T10:33:09.580Z,5.1
2022-10-20T10:34:10.179Z,5.0
2022-10-20T10:35:10.780Z,4.7
2022-10-20T10:36:11.380Z,4.9
2022-10-20T10:37:12.050Z,4.9
2022-10-20T10:38:12.621Z,4.4
2022-10-20T10:39:13.243Z,4.7
2022-10-20T10:40:13.847Z,4.6
2022-10-20T10:41:14.449Z,4.7
2022-10-20T10:42:15.046Z,4.9
2022-10-20T10:43:15.646Z,4.7
2022-10-20T10:44:16.247Z,5.1
2022-10-20T10:45:16.851Z,5.0
2022-10-20T10:46:17.451Z,4.8
2022-10-20T10:47:18.053Z,4.9
2022-10-20T10:48:18.672Z,4.5
2022-10-20T10:49:19.273Z,4.8
2022-10-20T10:50:19.872Z,4.1
2022-10-20T10:51:20.478Z,3.6
2022-10-20T10:52:21.097Z,4.3
2022-10-20T10:53:21.702Z,4.1
2022-10-20T10:54:22.298Z,4.5
2022-10-20T10:55:47.260Z,4.2
2022-10-20T10:56:24.495Z,3.7
2022-10-20T10:57:25.112Z,4.0
2022-10-20T10:58:25.713Z,3.6
2022-10-20T10:59:26.312Z,3.8
2022-10-20T11:00:26.912Z,3.4
2022-10-20T11:01:27.513Z,3.6
2022-10-20T11:02:28.113Z,3.9
2022-10-20T11:03:28.714Z,3.2
2022-10-20T11:04:29.316Z,3.6
2022-10-20T11:05:29.919Z,3.4
2022-10-20T11:06:30.536Z,3.8
2022-10-20T11:07:31.137Z,3.4
2022-10-20T11:08:31.790Z,3.3
2022-10-20T11:09:32.339Z,3.7
2022-10-20T11:10:32.936Z,3.2
2022-10-20T11:11:33.538Z,3.6
2022-10-20T11:12:34.140Z,3.6
2022-10-20T11:13:34.742Z,3.5
2022-10-20T11:14:35.341Z,3.3
2022-10-20T11:15:35.949Z,3.3
2022-10-20T11:16:36.540Z,3.0
2022-10-20T11:17:37.492Z,4.0
2022-10-20T11:18:38.137Z,3.2
2022-10-20T11:19:38.738Z,3.2
2022-10-20T11:20:39.337Z,3.8
2022-10-20T11:21:39.939Z,3.6
2022-10-20T11:22:40.561Z,3.8
2022-10-20T11:23:41.164Z,3.7
2022-10-20T11:25:55.117Z,3.3
2022-10-20T11:26:55.737Z,3.3
2022-10-20T11:27:56.339Z,3.5
2022-10-20T11:28:56.940Z,3.4
2022-10-20T11:29:57.542Z,3.4
2022-10-20T11:30:58.140Z,3.3
2022-10-20T11:31:58.742Z,2.7
2022-10-20T11:32:59.346Z,3.3
2022-10-20T11:33:59.950Z,3.3
2022-10-20T11:35:00.571Z,3.2
2022-10-20T11:36:01.192Z,3.1
2022-10-20T11:37:01.791Z,3.5
2022-10-20T11:38:02.411Z,3.4
2022-10-20T11:39:03.012Z,3.5
2022-10-20T11:40:07.567Z,3.4
2022-10-20T11:41:05.211Z,3.2
2022-10-20T11:42:05.814Z,3.0
2022-10-20T11:43:08.871Z,3.7
2022-10-20T11:44:08.077Z,3.4
2022-10-20T11:45:08.684Z,3.4
2022-10-20T11:46:09.282Z,3.3
2022-10-20T11:47:09.883Z,2.8
2022-10-20T11:48:10.484Z,3.3
2022-10-20T11:49:11.084Z,2.9
2022-10-20T11:50:11.751Z,3.2
2022-10-20T11:51:12.338Z,3.1
2022-10-20T11:52:12.939Z,3.6
2022-10-20T11:53:13.541Z,3.3
2022-10-20T11:54:14.142Z,3.4
2022-10-20T11:55:14.743Z,3.0
2022-10-20T11:56:15.344Z,3.3
2022-10-20T11:57:15.943Z,3.6
2022-10-20T11:58:16.546Z,3.6
2022-10-20T11:59:17.145Z,3.4
2022-10-20T12:00:17.749Z,3.5
2022-10-20T12:01:18.349Z,3.7
2022-10-20T12:02:19.043Z,3.5
2022-10-20T12:03:19.566Z,3.4
2022-10-20T12:04:20.166Z,3.2
2022-10-20T12:05:20.767Z,3.1
2022-10-20T12:06:21.368Z,3.3
2022-10-20T12:07:21.967Z,3.6
2022-10-20T12:08:29.774Z,3.4
2022-10-20T12:09:24.301Z,3.8
2022-10-20T12:10:24.776Z,3.8
2022-10-20T12:11:25.397Z,4.2
2022-10-20T12:12:25.997Z,3.7
2022-10-20T12:13:26.597Z,3.4
2022-10-20T12:14:27.217Z,3.3
2022-10-20T12:15:27.821Z,3.3
2022-10-20T12:16:28.422Z,3.2
2022-10-20T12:17:29.020Z,3.5
2022-10-20T12:18:29.623Z,3.2
2022-10-20T12:19:30.222Z,3.2
2022-10-20T12:20:30.822Z,3.6
2022-10-20T12:21:33.800Z,3.7
2022-10-20T12:22:33.018Z,3.5
2022-10-20T12:23:33.618Z,3.6
2022-10-20T12:24:34.241Z,3.1
2022-10-20T12:25:34.859Z,3.5
2022-10-20T12:26:35.456Z,3.4
2022-10-20T12:27:36.078Z,3.3
2022-10-20T12:28:36.698Z,3.4
2022-10-20T12:29:37.299Z,3.5
2022-10-20T12:30:37.912Z,3.3
2022-10-20T12:31:38.503Z,3.8
2022-10-20T12:32:39.350Z,3.0
2022-10-20T12:33:39.721Z,3.8
2022-10-20T12:34:40.324Z,3.4
2022-10-20T12:35:40.924Z,3.3
2022-10-20T12:36:41.544Z,3.5
2022-10-20T12:37:44.818Z,3.3
2022-10-20T12:38:43.758Z,3.1
2022-10-20T12:39:44.357Z,3.6
2022-10-20T12:40:44.966Z,3.1
2022-10-20T12:41:45.863Z,3.0
2022-10-20T12:42:46.412Z,3.2
2022-10-20T12:43:47.010Z,3.2
2022-10-20T12:44:47.614Z,3.3
2022-10-20T12:45:48.211Z,3.5
2022-10-20T12:46:48.813Z,3.4
2022-10-20T12:47:49.413Z,3.4
2022-10-20T12:48:50.031Z,3.0
2022-10-20T12:49:50.630Z,3.6
2022-10-20T12:50:51.232Z,3.0
2022-10-20T12:51:51.844Z,3.4
2022-10-20T12:52:52.443Z,3.2
2022-10-20T12:53:53.043Z,3.8
2022-10-20T12:54:53.643Z,3.2
2022-10-20T12:55:54.245Z,3.3
2022-10-20T12:56:54.842Z,3.0
2022-10-20T12:57:55.461Z,3.4
2022-10-20T12:58:56.062Z,3.6
2022-10-20T12:59:56.662Z,3.8
2022-10-20T13:00:57.304Z,3.1
2022-10-20T13:01:57.881Z,3.6
2022-10-20T13:02:58.478Z,3.4
2022-10-20T13:03:59.077Z,3.1
2022-10-20T13:04:59.680Z,3.8
2022-10-20T13:06:00.277Z,3.1
2022-10-20T13:07:00.881Z,3.4
2022-10-20T13:08:01.479Z,4.0
2022-10-20T13:09:02.139Z,3.3
2022-10-20T13:10:04.346Z,3.8
2022-10-20T13:11:03.335Z,3.7
2022-10-20T13:12:03.941Z,3.2
2022-10-20T13:13:04.555Z,3.8
2022-10-20T13:14:05.165Z,3.3
2022-10-20T13:15:05.787Z,3.4
2022-10-20T13:16:06.384Z,3.6
2022-10-20T13:17:06.984Z,3.2
2022-10-20T13:18:07.583Z,3.5
2022-10-20T13:19:08.184Z,3.7
2022-10-20T13:20:08.783Z,3.7
2022-10-20T13:21:09.385Z,3.2
2022-10-20T13:22:09.984Z,3.5
2022-10-20T13:23:10.587Z,3.5
2022-10-20T13:24:11.186Z,3.4
2022-10-20T13:25:11.784Z,3.1
2022-10-20T13:26:12.388Z,3.5
2022-10-20T13:27:12.981Z,3.2
2022-10-20T13:28:13.578Z,3.5
2022-10-20T13:29:14.178Z,3.7
2022-10-20T13:30:14.775Z,3.5
2022-10-20T13:31:15.374Z,3.2
2022-10-20T13:32:15.978Z,3.1
2022-10-20T13:34:18.159Z,3.4
2022-10-20T13:35:18.764Z,3.7
2022-10-20T13:36:19.358Z,3.5
2022-10-20T13:37:22.739Z,4.0
2022-10-20T13:38:21.554Z,3.4
2022-10-20T13:39:22.152Z,3.8
2022-10-20T13:40:23.948Z,3.3
2022-10-20T13:41:24.343Z,2.9
2022-10-20T13:42:24.943Z,3.7
2022-10-20T13:43:25.542Z,3.7
2022-10-20T13:44:31.178Z,3.3
2022-10-20T13:45:26.750Z,3.6
2022-10-20T13:46:27.345Z,3.1
2022-10-20T13:47:27.944Z,3.2
2022-10-20T13:48:28.541Z,3.6
2022-10-20T13:49:29.141Z,3.3
2022-10-20T13:50:29.739Z,3.1
2022-10-20T13:51:30.341Z,3.3
2022-10-20T13:52:30.935Z,3.5